Time;durP1;ratioP1;P1;durP2;ratioP2;P2;SDS_P1;SDS_P2;PMS_P1;PMS_P2;Temp;Humidity;BMP_temperature;BMP_pressure;BME280_temperature;BME280_humidity;BME280_pressure;Samples;Min_cycle;Max_cycle;Signal;HPM_P1;HPM_P2
2023/06/23 00:01:22;;;;;;;7.53;3.50;;;;;;;16.61;57.51;151458.16;5063515;28;20078;-65
2023/06/23 00:03:48;;;;;;;6.22;3.40;;;;;;;16.49;57.42;151427.25;5063544;28;20112;-65
2023/06/23 00:06:14;;;;;;;4.63;3.20;;;;;;;16.47;57.50;151423.38;5063353;28;20254;-64
2023/06/23 00:08:40;;;;;;;5.88;3.25;;;;;;;16.36;57.99;151396.34;5063245;28;20021;-66
2023/06/23 00:11:07;;;;;;;9.38;3.45;;;;;;;16.40;57.69;151405.34;5060981;28;20040;-65
2023/06/23 00:13:35;;;;;;;5.38;3.08;;;;;;;16.39;57.73;151402.81;5063464;28;20025;-66
2023/06/23 00:16:05;;;;;;;7.35;3.15;;;;;;;16.35;57.63;151392.50;5063372;28;20102;-66
2023/06/23 00:18:39;;;;;;;6.20;3.50;;;;;;;16.45;57.84;151416.97;5063498;28;20088;-66
2023/06/23 00:21:09;;;;;;;4.22;2.88;;;;;;;16.48;57.42;151424.69;5063314;28;20043;-65
2023/06/23 00:23:35;;;;;;;8.25;3.65;;;;;;;16.38;57.90;151401.50;5063204;28;20072;-66
2023/06/23 00:26:01;;;;;;;5.72;3.15;;;;;;;16.34;57.71;151389.91;5043386;28;20029;-66
2023/06/23 00:28:27;;;;;;;6.00;3.35;;;;;;;16.36;57.86;151396.34;5061265;28;20025;-65
2023/06/23 00:30:55;;;;;;;7.57;3.30;;;;;;;16.47;57.95;151423.38;5063093;28;20040;-65
2023/06/23 00:33:22;;;;;;;8.52;3.63;;;;;;;16.21;58.36;151357.72;5063418;28;20024;-65
2023/06/23 00:35:48;;;;;;;7.40;3.20;;;;;;;16.15;58.84;151342.28;5063016;28;20180;-66
2023/06/23 00:38:13;;;;;;;5.82;3.40;;;;;;;16.16;58.79;151344.81;5063255;28;20035;-65
2023/06/23 00:40:40;;;;;;;6.75;3.03;;;;;;;16.12;58.69;151334.50;5062793;28;20317;-65
2023/06/23 00:43:06;;;;;;;4.57;3.30;;;;;;;16.13;58.96;151337.09;5063091;28;20069;-66
2023/06/23 00:45:32;;;;;;;6.15;3.70;;;;;;;16.14;59.03;151339.69;5058589;28;20055;-65
2023/06/23 00:47:58;;;;;;;8.88;3.15;;;;;;;15.99;59.42;151302.31;5048516;28;20033;-65
2023/06/23 00:50:24;;;;;;;5.55;3.13;;;;;;;16.04;58.99;151315.22;5063075;28;20063;-66
2023/06/23 00:52:52;;;;;;;7.00;3.33;;;;;;;15.88;59.27;151275.31;5062987;28;20105;-66
2023/06/23 00:55:25;;;;;;;7.75;3.08;;;;;;;16.10;59.34;151329.38;5062857;28;20063;-66
2023/06/23 00:57:54;;;;;;;6.32;3.78;;;;;;;15.70;59.58;151230.19;5062698;28;20033;-66
2023/06/23 01:00:20;;;;;;;9.40;3.53;;;;;;;15.77;59.82;151248.22;5062845;28;20025;-66
2023/06/23 01:02:49;;;;;;;5.00;3.17;;;;;;;15.70;59.86;151231.50;5062575;28;20355;-66
2023/06/23 01:05:19;;;;;;;7.35;2.97;;;;;;;15.83;59.49;151262.41;5062934;28;20032;-66
2023/06/23 01:08:03;;;;;;;5.50;3.05;;;;;;;15.91;59.84;151281.75;5042586;28;20036;-66
2023/06/23 01:11:03;;;;;;;5.57;3.08;;;;;;;15.98;59.36;151299.78;5060019;28;20266;-66
2023/06/23 01:13:51;;;;;;;5.55;2.97;;;;;;;15.92;59.27;151285.63;5061760;28;20036;-66
2023/06/23 01:16:26;;;;;;;5.30;3.40;;;;;;;15.88;59.61;151276.59;5062257;28;20032;-66
2023/06/23 01:18:52;;;;;;;7.82;3.33;;;;;;;15.96;59.49;151295.91;5062136;28;20025;-66
2023/06/23 01:21:27;;;;;;;4.40;2.60;;;;;;;16.03;59.16;151313.94;5062732;28;20052;-66
2023/06/23 01:24:49;;;;;;;6.88;3.20;;;;;;;15.95;59.36;151292.06;5062334;28;20317;-66
2023/06/23 01:27:42;;;;;;;5.15;2.80;;;;;;;15.97;59.34;151298.47;5060554;28;20364;-66
2023/06/23 01:30:12;;;;;;;8.05;3.45;;;;;;;15.88;59.54;151275.31;5060324;28;20233;-66
2023/06/23 01:32:45;;;;;;;4.20;3.30;;;;;;;16.03;59.25;151312.63;5052934;28;20302;-65
2023/06/23 01:35:20;;;;;;;4.03;3.28;;;;;;;15.98;59.59;151299.78;5062335;28;20319;-65
2023/06/23 01:37:49;;;;;;;4.72;3.40;;;;;;;15.60;60.10;151204.44;5062245;28;20161;-66
2023/06/23 01:40:17;;;;;;;6.65;3.30;;;;;;;15.76;60.35;151244.34;5062456;28;20387;-67
2023/06/23 01:42:50;;;;;;;7.57;3.75;;;;;;;15.51;60.75;151183.84;5062283;28;20131;-67
2023/06/23 01:45:17;;;;;;;5.18;3.47;;;;;;;15.73;60.42;151237.91;5062784;28;20056;-67
2023/06/23 01:47:48;;;;;;;4.50;3.33;;;;;;;15.85;59.58;151267.59;5062082;28;20052;-67
2023/06/23 01:50:16;;;;;;;7.38;3.30;;;;;;;16.12;59.41;151335.84;5062472;28;20091;-66
2023/06/23 01:52:44;;;;;;;6.85;3.10;;;;;;;16.20;59.18;151356.44;5062332;28;20032;-66
2023/06/23 01:55:12;;;;;;;6.60;3.45;;;;;;;15.84;60.28;151266.28;5062466;28;20183;-67
2023/06/23 01:57:38;;;;;;;6.50;3.33;;;;;;;16.00;59.79;151306.22;5062217;28;20025;-69
2023/06/23 02:00:13;;;;;;;5.50;3.38;;;;;;;16.07;59.96;151321.66;5062407;28;20077;-66
2023/06/23 02:02:44;;;;;;;7.25;3.20;;;;;;;16.11;60.27;151333.25;5062173;28;20036;-66
2023/06/23 02:05:12;;;;;;;10.50;3.40;;;;;;;16.20;59.83;151355.13;5062357;28;20214;-67
2023/06/23 02:07:40;;;;;;;5.35;3.15;;;;;;;16.13;59.61;151338.41;5061952;28;20063;-66
2023/06/23 02:10:08;;;;;;;7.05;3.50;;;;;;;15.93;60.25;151288.16;5062259;28;20387;-66
2023/06/23 02:12:35;;;;;;;5.57;3.33;;;;;;;16.01;60.16;151308.78;5062426;28;20066;-66
2023/06/23 02:15:03;;;;;;;5.70;3.40;;;;;;;15.94;60.30;151290.75;5064806;28;20032;-67
2023/06/23 02:17:30;;;;;;;6.57;3.55;;;;;;;16.07;60.13;151321.66;5066017;28;20268;-66
2023/06/23 02:19:58;;;;;;;3.75;3.28;;;;;;;16.03;59.86;151312.63;5065553;28;20033;-66
2023/06/23 02:22:28;;;;;;;8.63;3.47;;;;;;;15.98;60.36;151299.78;5065747;28;20100;-68
2023/06/23 02:24:55;;;;;;;5.07;3.00;;;;;;;16.23;59.78;151362.84;5065354;28;20040;-66
2023/06/23 02:27:22;;;;;;;6.50;3.33;;;;;;;16.18;59.72;151351.28;5065442;28;20024;-66
2023/06/23 02:29:49;;;;;;;5.10;3.70;;;;;;;16.08;59.81;151324.25;5063431;28;20249;-66
2023/06/23 02:32:17;;;;;;;7.82;3.63;;;;;;;16.04;60.73;151315.22;5065472;28;20029;-66
2023/06/23 02:34:46;;;;;;;10.80;6.88;;;;;;;15.99;61.10;151303.63;5065121;28;20028;-66
2023/06/23 02:37:16;;;;;;;10.70;6.80;;;;;;;16.14;60.33;151340.97;5064129;28;20253;-67
2023/06/23 02:39:47;;;;;;;7.95;3.75;;;;;;;15.80;61.43;151254.69;5065000;28;20306;-67
2023/06/23 02:42:15;;;;;;;6.57;4.03;;;;;;;15.87;61.60;151272.72;5065229;28;20040;-66
2023/06/23 02:44:54;;;;;;;6.68;4.00;;;;;;;15.94;61.89;151289.47;5064962;28;20043;-66
2023/06/23 02:47:22;;;;;;;8.43;4.00;;;;;;;15.86;61.63;151270.13;5064103;28;20095;-67
2023/06/23 02:49:51;;;;;;;5.78;3.55;;;;;;;15.99;61.55;151303.63;5063806;28;20043;-67
2023/06/23 02:52:19;;;;;;;10.82;4.47;;;;;;;15.91;62.09;151281.75;5065201;28;20025;-66
2023/06/23 02:54:49;;;;;;;7.22;3.85;;;;;;;15.69;62.35;151228.91;5064587;28;20045;-66
2023/06/23 02:57:17;;;;;;;10.13;3.55;;;;;;;15.97;62.36;151298.47;5064852;28;20267;-66
2023/06/23 02:59:45;;;;;;;5.75;3.92;;;;;;;15.90;62.96;151280.44;5064655;28;20051;-67
2023/06/23 03:02:15;;;;;;;7.90;4.50;;;;;;;15.68;63.87;151226.31;5064930;28;20086;-68
2023/06/23 03:04:41;;;;;;;7.55;4.18;;;;;;;15.59;63.39;151201.88;5064700;28;20040;-67
2023/06/23 03:07:10;;;;;;;9.10;4.30;;;;;;;15.86;63.64;151271.44;5065116;28;20025;-66
2023/06/23 03:09:36;;;;;;;5.03;3.55;;;;;;;15.88;63.12;151275.31;5064486;28;20033;-65
2023/06/23 03:12:02;;;;;;;6.70;4.05;;;;;;;15.95;62.91;151292.06;5064784;28;20048;-66
2023/06/23 03:14:28;;;;;;;5.57;3.88;;;;;;;16.08;62.66;151324.25;5064885;28;20084;-66
2023/06/23 03:17:12;;;;;;;7.78;4.28;;;;;;;15.79;63.30;151253.44;5044624;28;20022;-66
2023/06/23 03:19:56;;;;;;;8.82;4.00;;;;;;;15.84;63.19;151266.28;5062676;28;20060;-67
2023/06/23 03:22:42;;;;;;;9.02;3.58;;;;;;;16.10;62.68;151330.66;5061441;28;20033;-66
2023/06/23 03:25:14;;;;;;;7.28;4.15;;;;;;;15.60;63.72;151204.44;5057197;28;20036;-67
2023/06/23 03:27:42;;;;;;;7.60;4.32;;;;;;;15.88;62.95;151275.31;5064230;28;20146;-66
2023/06/23 03:30:48;;;;;;;11.88;4.30;;;;;;;15.65;63.97;151218.59;5064240;28;20064;-66
2023/06/23 03:33:20;;;;;;;6.50;4.30;;;;;;;15.95;63.06;151293.34;5064043;28;20048;-66
2023/06/23 03:35:48;;;;;;;7.13;3.85;;;;;;;16.08;62.80;151324.25;5064123;28;20325;-66
2023/06/23 03:38:17;;;;;;;7.30;3.70;;;;;;;16.17;63.10;151348.69;5064368;28;20025;-66
2023/06/23 03:40:48;;;;;;;9.00;4.28;;;;;;;16.21;62.89;151357.72;5063867;28;20024;-65
2023/06/23 03:43:26;;;;;;;6.67;3.80;;;;;;;16.06;63.29;151320.34;5064331;28;20337;-67
2023/06/23 03:45:55;;;;;;;5.90;4.07;;;;;;;16.15;63.71;151343.53;5063843;28;20074;-66
2023/06/23 03:48:26;;;;;;;6.00;4.00;;;;;;;16.22;63.21;151360.31;5064006;28;20096;-66
2023/06/23 03:50:54;;;;;;;7.80;4.30;;;;;;;16.04;63.84;151316.50;5063739;28;20029;-66
2023/06/23 03:53:21;;;;;;;5.65;4.32;;;;;;;16.07;63.44;151321.66;5064092;28;20048;-65
2023/06/23 03:55:48;;;;;;;7.32;4.13;;;;;;;16.23;63.32;151362.84;5063536;28;20052;-66
2023/06/23 03:58:15;;;;;;;7.43;4.43;;;;;;;16.16;63.98;151344.81;5063855;28;20100;-67
2023/06/23 04:00:42;;;;;;;9.38;4.85;;;;;;;15.99;64.39;151303.63;5063393;28;20099;-67
2023/06/23 04:03:09;;;;;;;9.80;4.40;;;;;;;16.15;64.09;151342.28;5063400;28;20044;-66
2023/06/23 04:05:38;;;;;;;7.88;4.78;;;;;;;16.21;63.82;151357.72;5063351;28;20025;-66
2023/06/23 04:08:04;;;;;;;7.55;4.55;;;;;;;16.14;64.17;151340.97;5063348;28;20024;-67
2023/06/23 04:10:32;;;;;;;9.65;4.40;;;;;;;16.38;63.59;151401.50;5063682;28;20104;-66
2023/06/23 04:13:00;;;;;;;9.88;4.78;;;;;;;16.12;64.42;151334.50;5063290;28;20041;-66
2023/06/23 04:15:27;;;;;;;9.93;5.32;;;;;;;15.98;64.78;151301.06;5056302;28;20291;-66
2023/06/23 04:17:56;;;;;;;7.25;5.05;;;;;;;16.22;64.37;151360.31;5045904;28;20039;-66
2023/06/23 04:20:24;;;;;;;8.23;4.60;;;;;;;16.46;64.51;151419.53;5063392;28;20048;-66
2023/06/23 04:22:52;;;;;;;9.65;4.72;;;;;;;16.48;63.76;151425.97;5058523;28;20033;-66
2023/06/23 04:25:19;;;;;;;9.57;4.70;;;;;;;16.63;63.96;151463.34;5057610;28;20029;-66
2023/06/23 04:27:47;;;;;;;6.65;4.57;;;;;;;16.60;63.91;151454.31;5063015;28;20035;-66
2023/06/23 04:30:16;;;;;;;9.15;4.82;;;;;;;16.62;64.74;151459.50;5062945;28;20039;-67
2023/06/23 04:32:44;;;;;;;6.65;5.78;;;;;;;16.65;64.48;151467.22;5062602;28;20029;-65
2023/06/23 04:35:10;;;;;;;5.10;4.47;;;;;;;16.85;63.51;151517.44;5063026;28;20029;-67
2023/06/23 04:37:43;;;;;;;13.07;5.00;;;;;;;16.90;64.15;151530.34;5045660;28;20079;-66
2023/06/23 04:40:17;;;;;;;8.65;4.43;;;;;;;17.03;63.35;151562.56;5055493;28;20029;-67
2023/06/23 04:42:54;;;;;;;8.55;4.63;;;;;;;16.93;63.95;151538.13;5062887;28;20339;-66
2023/06/23 04:45:25;;;;;;;9.05;5.43;;;;;;;16.90;64.05;151530.34;5062639;28;20044;-67
2023/06/23 04:48:01;;;;;;;10.45;5.20;;;;;;;16.84;65.08;151514.84;5053065;28;20063;-66
2023/06/23 04:50:32;;;;;;;11.55;6.90;;;;;;;16.89;64.18;151527.81;5062543;28;20171;-66
2023/06/23 04:53:05;;;;;;;;;;;;;;;17.03;65.09;151563.88;5062825;28;20060;-66
2023/06/23 04:55:34;;;;;;;9.73;5.30;;;;;;;17.04;64.79;151566.44;5062499;28;19909;-66
2023/06/23 04:58:04;;;;;;;10.65;5.90;;;;;;;16.94;65.78;151540.66;5061132;28;20017;-65
2023/06/23 05:00:31;;;;;;;9.20;6.30;;;;;;;17.10;64.84;151579.34;5062552;28;20033;-67
2023/06/23 05:02:59;;;;;;;8.27;5.38;;;;;;;17.22;66.06;151611.53;5062163;28;20107;-66
2023/06/23 05:05:28;;;;;;;11.27;5.60;;;;;;;17.21;66.03;151607.69;5062413;28;20060;-66
2023/06/23 05:07:55;;;;;;;13.43;6.35;;;;;;;17.08;66.17;151576.75;5061965;28;20029;-67
2023/06/23 05:10:23;;;;;;;11.43;6.15;;;;;;;16.98;67.55;151549.72;5062305;28;20149;-67
2023/06/23 05:12:51;;;;;;;8.57;5.68;;;;;;;16.97;66.84;151547.13;5061986;28;20036;-65
2023/06/23 05:15:21;;;;;;;9.60;6.00;;;;;;;16.93;66.46;151536.81;5057826;28;20033;-66
2023/06/23 05:17:53;;;;;;;9.52;5.68;;;;;;;16.97;66.86;151548.38;5043608;28;20027;-65
2023/06/23 05:20:21;;;;;;;8.07;5.53;;;;;;;16.96;67.30;151544.53;5062383;28;20032;-66
2023/06/23 05:22:50;;;;;;;9.45;6.28;;;;;;;17.18;67.38;151599.97;5055805;28;20532;-66
2023/06/23 05:25:18;;;;;;;9.85;6.28;;;;;;;17.17;66.54;151598.69;5055966;28;20040;-66
2023/06/23 05:27:45;;;;;;;12.05;6.65;;;;;;;17.13;67.22;151588.38;5062013;28;20080;-66
2023/06/23 05:30:21;;;;;;;9.43;5.93;;;;;;;17.24;67.12;151615.41;5062163;28;20056;-66
2023/06/23 05:32:49;;;;;;;9.65;6.70;;;;;;;17.37;66.48;151648.94;5062092;28;20039;-67
2023/06/23 05:35:15;;;;;;;11.52;6.38;;;;;;;17.48;66.71;151675.97;5062514;28;20060;-66
2023/06/23 05:37:43;;;;;;;11.57;6.47;;;;;;;17.49;67.00;151677.31;5061236;28;20098;-66
2023/06/23 05:40:11;;;;;;;9.88;6.38;;;;;;;17.57;65.84;151697.88;5062003;28;20029;-67
2023/06/23 05:42:37;;;;;;;12.50;6.70;;;;;;;17.50;66.13;151679.84;5061564;28;20025;-66
2023/06/23 05:45:04;;;;;;;11.85;7.03;;;;;;;17.50;67.21;151681.16;5060810;28;20052;-67
2023/06/23 05:47:38;;;;;;;9.30;6.50;;;;;;;17.62;66.50;151710.81;5062324;28;20029;-67
2023/06/23 05:50:11;;;;;;;13.50;8.07;;;;;;;17.49;66.56;151678.56;5044801;28;20033;-66
2023/06/23 05:52:45;;;;;;;14.57;7.20;;;;;;;17.60;66.37;151706.94;5062198;28;20294;-66
2023/06/23 05:55:12;;;;;;;11.98;6.70;;;;;;;17.66;66.98;151719.81;5064093;28;20096;-67
2023/06/23 05:57:39;;;;;;;14.15;7.32;;;;;;;17.81;66.11;151757.22;5053712;28;20313;-66
2023/06/23 06:00:15;;;;;;;12.43;7.28;;;;;;;17.71;66.29;151732.72;5065020;28;20037;-67
2023/06/23 06:02:46;;;;;;;18.20;8.23;;;;;;;17.92;65.96;151785.63;5064043;28;20033;-68
2023/06/23 06:05:17;;;;;;;15.73;7.22;;;;;;;17.82;66.88;151759.81;5065124;28;20056;-66
2023/06/23 06:07:44;;;;;;;14.15;7.72;;;;;;;17.88;67.74;151775.25;5060633;28;20291;-67
2023/06/23 06:10:11;;;;;;;10.35;7.82;;;;;;;17.93;67.57;151788.22;5057433;28;20056;-68
2023/06/23 06:12:38;;;;;;;15.70;8.20;;;;;;;18.15;66.40;151842.38;5065194;28;20040;-66
2023/06/23 06:15:06;;;;;;;11.95;7.65;;;;;;;17.96;66.87;151794.63;5065310;28;20095;-66
2023/06/23 06:17:33;;;;;;;11.93;8.20;;;;;;;18.16;67.24;151844.97;5065515;28;20325;-66
2023/06/23 06:20:02;;;;;;;16.23;7.75;;;;;;;18.31;66.53;151882.34;5064864;28;20053;-67
2023/06/23 06:22:32;;;;;;;15.52;9.13;;;;;;;18.18;67.89;151851.38;5065580;28;20041;-66
2023/06/23 06:25:00;;;;;;;16.85;7.93;;;;;;;18.27;68.45;151874.59;5064883;28;20048;-66
2023/06/23 06:27:29;;;;;;;13.93;8.55;;;;;;;18.14;68.29;151839.78;5065523;28;20100;-67
2023/06/23 06:29:56;;;;;;;14.68;8.27;;;;;;;18.33;68.84;151888.78;5065221;28;20040;-67
2023/06/23 06:32:24;;;;;;;16.83;9.23;;;;;;;18.16;70.13;151844.97;5064601;28;20209;-67
2023/06/23 06:34:51;;;;;;;15.00;9.02;;;;;;;18.20;70.75;151856.56;5064688;28;20033;-66
2023/06/23 06:37:18;;;;;;;13.27;8.85;;;;;;;18.36;69.74;151896.53;5064408;28;20093;-66
2023/06/23 06:39:45;;;;;;;11.05;8.60;;;;;;;18.46;70.36;151921.03;5064230;28;20047;-67
2023/06/23 06:42:11;;;;;;;11.38;8.65;;;;;;;18.45;71.53;151918.44;5063275;28;20259;-66
2023/06/23 06:44:38;;;;;;;15.98;9.15;;;;;;;18.54;72.39;151940.38;5064668;28;20082;-66
2023/06/23 06:47:06;;;;;;;14.25;9.10;;;;;;;18.61;72.18;151958.41;5064210;28;20040;-65
2023/06/23 06:49:33;;;;;;;15.07;10.52;;;;;;;18.62;74.19;151962.28;5063915;28;20029;-66
2023/06/23 06:52:00;;;;;;;10.50;9.35;;;;;;;18.72;73.48;151985.53;5064334;28;20343;-65
2023/06/23 06:54:26;;;;;;;11.77;8.80;;;;;;;18.78;74.26;152002.31;5061790;28;20028;-66
2023/06/23 06:56:54;;;;;;;17.15;10.45;;;;;;;18.67;74.80;151972.63;5063324;28;20044;-67
2023/06/23 06:59:20;;;;;;;15.40;10.88;;;;;;;18.68;74.27;151976.47;5064670;28;20032;-67
2023/06/23 07:01:47;;;;;;;14.02;10.48;;;;;;;18.66;74.48;151970.06;5064170;28;20055;-67
2023/06/23 07:04:14;;;;;;;16.13;11.10;;;;;;;18.58;76.09;151950.69;5064376;28;20036;-67
2023/06/23 07:06:40;;;;;;;12.95;11.48;;;;;;;18.65;76.11;151968.75;5064710;28;20095;-68
2023/06/23 07:09:06;;;;;;;16.05;11.35;;;;;;;18.53;76.37;151937.81;5064585;28;20045;-66
2023/06/23 07:11:32;;;;;;;15.75;11.40;;;;;;;18.54;77.13;151941.69;5064004;28;20209;-67
2023/06/23 07:13:58;;;;;;;16.85;12.60;;;;;;;18.63;76.52;151963.59;5063377;28;20057;-67
2023/06/23 07:16:30;;;;;;;14.82;12.15;;;;;;;18.56;77.25;151945.56;5059406;28;20025;-66
2023/06/23 07:18:56;;;;;;;17.60;12.57;;;;;;;18.57;77.74;151948.09;5053372;28;20029;-67
2023/06/23 07:21:22;;;;;;;14.68;12.05;;;;;;;18.45;79.21;151919.78;5062691;28;20262;-67
2023/06/23 07:23:47;;;;;;;15.30;11.80;;;;;;;18.64;77.97;151966.19;5063964;28;20027;-66
2023/06/23 07:26:13;;;;;;;14.82;12.68;;;;;;;18.66;79.52;151971.34;5050835;28;20187;-67
2023/06/23 07:28:38;;;;;;;15.27;12.25;;;;;;;18.52;80.89;151936.50;5063628;28;20029;-66
2023/06/23 07:31:05;;;;;;;14.15;11.52;;;;;;;18.55;79.52;151942.97;5063950;28;20035;-67
2023/06/23 07:33:30;;;;;;;15.73;11.48;;;;;;;18.56;79.47;151945.56;5059721;28;20362;-67
2023/06/23 07:35:56;;;;;;;19.45;13.93;;;;;;;18.55;79.62;151942.97;5045270;28;20037;-67
2023/06/23 07:38:21;;;;;;;24.33;15.15;;;;;;;18.51;81.78;151932.63;5064346;28;20021;-68
2023/06/23 07:40:47;;;;;;;19.27;14.45;;;;;;;18.09;82.55;151828.19;5063761;28;20028;-66
2023/06/23 07:43:13;;;;;;;21.73;14.48;;;;;;;18.31;82.16;151883.63;5064124;28;20025;-65
2023/06/23 07:45:39;;;;;;;22.15;14.25;;;;;;;18.39;81.49;151904.25;5063724;28;20032;-68
2023/06/23 07:48:04;;;;;;;20.95;15.00;;;;;;;18.25;81.92;151868.16;5063251;28;20025;-67
2023/06/23 07:50:30;;;;;;;20.02;14.85;;;;;;;18.41;82.49;151909.44;5063641;28;20091;-67
2023/06/23 07:52:56;;;;;;;24.23;15.50;;;;;;;18.27;82.93;151874.59;5063747;28;20096;-67
2023/06/23 07:55:21;;;;;;;21.30;15.60;;;;;;;18.43;82.74;151914.59;5063848;28;20029;-68
2023/06/23 07:57:48;;;;;;;20.05;15.88;;;;;;;18.44;83.24;151915.84;5063677;28;20025;-68
2023/06/23 08:00:15;;;;;;;19.00;16.17;;;;;;;18.45;83.39;151919.78;5063598;28;20036;-68
2023/06/23 08:02:41;;;;;;;21.67;15.65;;;;;;;18.39;84.39;151904.25;5063716;28;20047;-66
2023/06/23 08:05:08;;;;;;;21.90;15.50;;;;;;;18.39;84.24;151902.97;5063058;28;20076;-67
2023/06/23 08:07:33;;;;;;;24.52;16.42;;;;;;;18.49;85.35;151928.78;5063362;28;20182;-67
2023/06/23 08:09:59;;;;;;;15.07;13.13;;;;;;;18.58;83.91;151950.69;5063214;28;20052;-66
2023/06/23 08:12:24;;;;;;;19.67;14.90;;;;;;;18.50;85.93;151930.03;5061704;28;20028;-66
2023/06/23 08:14:50;;;;;;;16.63;14.52;;;;;;;18.49;86.00;151927.50;5062600;28;20055;-66
2023/06/23 08:17:16;;;;;;;19.98;14.05;;;;;;;18.35;86.08;151893.94;5063005;28;20036;-67
2023/06/23 08:19:43;;;;;;;15.27;13.60;;;;;;;18.42;86.79;151912.00;5062572;28;20031;-68
2023/06/23 08:22:09;;;;;;;14.75;12.52;;;;;;;18.54;84.99;151941.69;5063056;28;20027;-68
2023/06/23 08:24:35;;;;;;;17.92;14.48;;;;;;;18.58;86.13;151952.00;5062583;28;20274;-67
2023/06/23 08:27:00;;;;;;;13.75;12.30;;;;;;;18.74;85.13;151992.00;5062832;28;20025;-66
2023/06/23 08:29:26;;;;;;;20.85;16.13;;;;;;;18.70;86.49;151981.66;5062901;28;20028;-67
2023/06/23 08:31:52;;;;;;;14.60;11.75;;;;;;;18.39;86.23;151904.25;5061005;28;20068;-67
2023/06/23 08:34:18;;;;;;;15.88;12.85;;;;;;;18.59;86.00;151953.28;5059868;28;20025;-66
2023/06/23 08:36:44;;;;;;;16.95;13.77;;;;;;;18.56;86.08;151945.56;5062749;28;20097;-67
2023/06/23 08:39:10;;;;;;;17.08;14.27;;;;;;;18.59;86.04;151953.28;5050078;28;20105;-67
2023/06/23 08:41:43;;;;;;;17.70;15.25;;;;;;;18.25;88.32;151868.16;5062570;28;20198;-66
2023/06/23 08:44:13;;;;;;;22.95;17.42;;;;;;;18.42;88.07;151912.00;5062106;28;20025;-67
2023/06/23 08:46:41;;;;;;;23.60;17.75;;;;;;;18.29;90.19;151878.47;5056164;28;20025;-66
2023/06/23 08:49:10;;;;;;;31.60;20.27;;;;;;;18.31;91.99;151883.63;5061740;28;20017;-66
2023/06/23 08:51:36;;;;;;;24.45;19.45;;;;;;;18.28;92.42;151877.19;5057552;28;20036;-66
2023/06/23 08:54:02;;;;;;;27.10;20.17;;;;;;;18.22;93.01;151860.41;5061217;28;20124;-67
2023/06/23 08:56:28;;;;;;;22.33;17.48;;;;;;;18.14;93.25;151839.78;5051423;28;20088;-67
2023/06/23 08:58:54;;;;;;;30.38;19.65;;;;;;;18.09;94.87;151829.44;5062819;28;20039;-67
2023/06/23 09:01:20;;;;;;;23.15;19.40;;;;;;;18.05;95.47;151817.88;5061662;28;20100;-67
2023/06/23 09:03:45;;;;;;;28.70;20.23;;;;;;;18.05;95.34;151819.13;5062838;28;20024;-67
2023/06/23 09:06:11;;;;;;;28.98;19.10;;;;;;;17.97;95.31;151798.53;5062695;28;20041;-67
2023/06/23 09:08:36;;;;;;;29.88;21.95;;;;;;;17.96;96.69;151794.63;5061417;28;20336;-68
2023/06/23 09:11:02;;;;;;;31.42;19.75;;;;;;;18.00;95.57;151806.28;5062422;28;20033;-66
2023/06/23 09:13:33;;;;;;;31.40;23.17;;;;;;;17.77;97.94;151749.47;5062597;28;20272;-66
2023/06/23 09:16:00;;;;;;;29.50;22.50;;;;;;;-145.63;61.88;38867.81;5062467;28;20032;-67
2023/06/23 09:18:25;;;;;;;33.05;24.15;;;;;;;-145.63;62.23;38891.28;5062885;28;20029;-66
2023/06/23 09:20:52;;;;;;;26.90;21.27;;;;;;;-145.63;62.18;38897.13;5062535;28;20236;-66
2023/06/23 09:23:23;;;;;;;27.90;22.70;;;;;;;-145.63;62.65;38904.97;5044775;28;20318;-67
2023/06/23 09:25:50;;;;;;;23.77;18.77;;;;;;;-145.63;62.65;38883.44;5065065;28;20029;-66
2023/06/23 09:28:24;;;;;;;27.58;20.23;;;;;;;-145.63;62.85;38893.22;5066552;28;20021;-65
2023/06/23 09:30:52;;;;;;;17.23;13.68;;;;;;;-145.63;62.97;38944.06;5054296;28;20305;-66
2023/06/23 09:33:19;;;;;;;19.02;14.40;;;;;;;-145.63;62.29;38920.59;5066652;28;20321;-66
2023/06/23 09:35:49;;;;;;;15.95;13.52;;;;;;;-145.63;62.09;38889.31;5065304;28;20226;-66
2023/06/23 09:38:26;;;;;;;17.70;13.02;;;;;;;-145.63;62.82;38928.44;5066593;28;20070;-66
2023/06/23 09:41:09;;;;;;;11.50;10.30;;;;;;;-145.63;61.55;38969.50;5066060;28;20044;-66
2023/06/23 09:43:57;;;;;;;13.57;11.60;;;;;;;-145.63;61.58;38873.66;5066414;28;20036;-67
2023/06/23 09:46:22;;;;;;;14.27;12.73;;;;;;;-145.63;62.13;38895.19;5066345;28;20025;-66
2023/06/23 09:48:49;;;;;;;15.20;13.68;;;;;;;-145.63;62.43;38895.19;5066126;28;20036;-67
2023/06/23 09:51:18;;;;;;;15.43;13.88;;;;;;;-145.63;62.33;38901.03;5065012;28;20045;-67
2023/06/23 09:53:44;;;;;;;16.83;12.80;;;;;;;-145.63;62.49;38903.00;5065012;28;20333;-67
2023/06/23 09:56:21;;;;;;;16.02;14.02;;;;;;;-145.63;62.75;38914.72;5066120;28;20040;-67
2023/06/23 09:58:48;;;;;;;16.85;14.65;;;;;;;-145.63;62.07;38901.03;5061581;28;20038;-67
2023/06/23 10:01:18;;;;;;;15.23;13.63;;;;;;;-145.63;62.93;38906.91;5057009;28;20277;-67
2023/06/23 10:03:52;;;;;;;17.48;15.75;;;;;;;-145.63;63.10;38871.72;5065870;28;20092;-67
2023/06/23 10:06:21;;;;;;;16.75;15.05;;;;;;;-145.63;62.48;38871.72;5065890;28;20041;-67
2023/06/23 10:08:47;;;;;;;17.02;15.25;;;;;;;-145.63;62.25;38920.59;5065659;28;20025;-68
2023/06/23 10:11:17;;;;;;;18.80;16.50;;;;;;;-145.63;62.90;38891.28;5065881;28;20033;-66
2023/06/23 10:13:43;;;;;;;17.00;15.20;;;;;;;-145.63;62.58;38910.81;5065675;28;20202;-67
2023/06/23 10:16:09;;;;;;;19.42;15.13;;;;;;;-145.63;63.39;38879.53;5065625;28;20021;-66
2023/06/23 10:18:35;;;;;;;17.67;15.75;;;;;;;-145.63;62.79;38930.38;5055496;28;20364;-67
2023/06/23 10:21:01;;;;;;;18.33;16.30;;;;;;;-145.63;63.10;38904.97;5065698;28;20088;-67
2023/06/23 10:23:28;;;;;;;19.80;17.73;;;;;;;-145.63;63.54;38910.81;5064570;28;20318;-67
2023/06/23 10:25:56;;;;;;;20.88;18.67;;;;;;;-145.63;63.64;38940.16;5065387;28;20079;-67
2023/06/23 10:28:22;;;;;;;19.63;17.63;;;;;;;-145.63;62.47;38906.91;5065486;28;20032;-67
2023/06/23 10:30:49;;;;;;;17.13;15.43;;;;;;;-145.63;61.94;38920.59;5065422;28;20182;-67
2023/06/23 10:33:19;;;;;;;14.90;13.38;;;;;;;-145.63;61.86;38992.97;5065454;28;20033;-67
2023/06/23 10:35:48;;;;;;;15.30;12.68;;;;;;;-145.63;61.93;38928.44;5064501;28;20053;-67
2023/06/23 10:38:18;;;;;;;15.85;14.30;;;;;;;-145.63;62.07;38914.72;5065312;28;20253;-67
2023/06/23 10:40:51;;;;;;;16.95;13.63;;;;;;;-145.63;61.71;38897.13;5065184;28;20033;-67
2023/06/23 10:43:19;;;;;;;13.68;12.27;;;;;;;-145.63;61.42;38899.09;5065299;28;20025;-66
2023/06/23 10:45:45;;;;;;;14.52;13.02;;;;;;;-145.63;61.36;38938.19;5064358;28;20029;-66
2023/06/23 10:48:12;;;;;;;13.25;11.30;;;;;;;-145.63;61.14;38918.66;5064065;28;20329;-67
2023/06/23 10:50:40;;;;;;;11.50;10.02;;;;;;;-145.63;61.82;38897.13;5065188;28;20499;-67
2023/06/23 10:53:16;;;;;;;12.30;11.00;;;;;;;-145.63;61.60;38867.81;5064784;28;20082;-67
2023/06/23 10:55:44;;;;;;;13.68;11.98;;;;;;;-145.63;61.75;38848.25;5063205;28;20049;-68
2023/06/23 10:58:18;;;;;;;11.15;10.15;;;;;;;-145.63;61.70;38867.81;5064772;28;20029;-67
2023/06/23 11:01:04;;;;;;;13.88;11.48;;;;;;;-145.63;61.45;38903.00;5064675;28;20071;-66
2023/06/23 11:03:33;;;;;;;12.38;11.18;;;;;;;-145.63;61.48;38859.97;5063691;28;20158;-67
2023/06/23 11:06:03;;;;;;;14.18;12.73;;;;;;;-145.63;62.41;38852.16;5045115;28;20033;-68
2023/06/23 11:08:40;;;;;;;13.77;12.10;;;;;;;-145.63;61.48;38846.28;5064872;28;20036;-67
2023/06/23 11:11:11;;;;;;;14.95;13.45;;;;;;;-145.63;61.74;38863.88;5050419;28;20336;-67
2023/06/23 11:13:46;;;;;;;15.05;13.52;;;;;;;-145.63;61.15;38873.66;5055662;28;20036;-66
2023/06/23 11:16:17;;;;;;;18.67;14.40;;;;;;;-145.63;61.95;38867.81;5060583;28;20492;-68
2023/06/23 11:19:04;;;;;;;16.23;14.57;;;;;;;-145.63;61.64;38881.50;5063973;28;20032;-67
2023/06/23 11:21:32;;;;;;;15.57;13.65;;;;;;;-145.63;61.11;38924.50;5064535;28;20025;-67
2023/06/23 11:24:10;;;;;;;16.52;14.73;;;;;;;-145.63;60.77;38879.53;5064417;28;20106;-67
2023/06/23 11:26:36;;;;;;;15.75;14.13;;;;;;;-145.63;60.92;38805.22;5064568;28;20035;-67